createdAt,value
2023-05-01T00:02:12.217Z,99.90
2023-05-01T00:04:39.207Z,99.90
2023-05-01T00:07:06.181Z,99.90
2023-05-01T00:09:33.399Z,99.90
2023-05-01T00:12:00.434Z,99.90
2023-05-01T00:14:28.213Z,99.90
2023-05-01T00:16:55.330Z,99.90
2023-05-01T00:19:22.305Z,99.90
2023-05-01T00:21:51.597Z,99.90
2023-05-01T00:24:18.627Z,99.90
2023-05-01T00:26:45.516Z,99.90
2023-05-01T00:29:13.334Z,99.90
2023-05-01T00:31:42.305Z,99.90
2023-05-01T00:34:10.488Z,99.90
2023-05-01T00:36:37.618Z,99.90
2023-05-01T00:39:07.824Z,99.90
2023-05-01T00:41:35.784Z,99.90
2023-05-01T00:44:03.244Z,99.90
2023-05-01T00:46:32.241Z,99.90
2023-05-01T00:48:59.401Z,99.90
2023-05-01T00:51:29.831Z,99.90
2023-05-01T00:53:59.798Z,99.90
2023-05-01T00:56:26.827Z,99.90
2023-05-01T00:58:55.289Z,99.90
2023-05-01T01:01:22.325Z,99.90
2023-05-01T01:03:51.635Z,99.90
2023-05-01T01:06:42.941Z,99.90
2023-05-01T01:09:32.990Z,99.90
2023-05-01T01:12:23.796Z,99.90
2023-05-01T01:15:16.507Z,99.90
2023-05-01T01:17:46.708Z,99.90
2023-05-01T01:20:30.630Z,99.90
2023-05-01T01:23:41.149Z,99.90
2023-05-01T01:26:13.797Z,99.90
2023-05-01T01:28:56.567Z,99.90
2023-05-01T01:31:32.663Z,99.90
2023-05-01T01:34:04.445Z,99.90
2023-05-01T01:36:34.796Z,99.90
2023-05-01T01:39:14.787Z,99.90
2023-05-01T01:41:47.685Z,99.90
2023-05-01T01:44:23.648Z,99.90
2023-05-01T01:46:53.034Z,99.90
2023-05-01T01:49:24.497Z,99.90
2023-05-01T01:51:53.380Z,99.90
2023-05-01T01:54:27.278Z,99.90
2023-05-01T01:56:56.757Z,99.90
2023-05-01T01:59:25.439Z,99.90
2023-05-01T02:01:58.968Z,99.90
2023-05-01T02:04:27.861Z,99.90
2023-05-01T02:07:00.033Z,99.90
2023-05-01T02:09:29.638Z,99.90
2023-05-01T02:11:57.518Z,99.90
2023-05-01T02:14:26.983Z,99.90
2023-05-01T02:16:58.775Z,99.90
2023-05-01T02:19:29.463Z,99.90
2023-05-01T02:21:58.282Z,99.90
2023-05-01T02:24:27.274Z,99.90
2023-05-01T02:27:12.450Z,99.90
2023-05-01T02:29:39.643Z,99.90
2023-05-01T02:32:06.704Z,99.90
2023-05-01T02:34:36.542Z,99.90
2023-05-01T02:37:06.249Z,99.90
2023-05-01T02:39:33.547Z,99.90
2023-05-01T02:42:03.328Z,99.90
2023-05-01T02:44:38.417Z,99.90
2023-05-01T02:47:07.850Z,99.90
2023-05-01T02:49:37.954Z,99.90
2023-05-01T02:52:06.001Z,99.90
2023-05-01T02:54:35.239Z,99.90
2023-05-01T02:57:05.382Z,99.90
2023-05-01T02:59:33.550Z,99.90
2023-05-01T03:02:00.455Z,99.90
2023-05-01T03:04:27.817Z,99.90
2023-05-01T03:06:55.767Z,99.90
2023-05-01T03:09:22.717Z,99.90
2023-05-01T03:11:49.813Z,99.90
2023-05-01T03:14:17.567Z,99.90
2023-05-01T03:16:44.752Z,99.90
2023-05-01T03:19:13.758Z,99.90
2023-05-01T03:21:40.890Z,99.90
2023-05-01T03:24:08.248Z,99.90
2023-05-01T03:26:36.109Z,99.90
2023-05-01T03:29:03.304Z,99.90
2023-05-01T03:31:31.487Z,99.90
2023-05-01T03:33:59.025Z,99.90
2023-05-01T03:36:26.650Z,99.90
2023-05-01T03:38:53.425Z,99.90
2023-05-01T03:41:20.190Z,99.90
2023-05-01T03:43:47.056Z,99.90
2023-05-01T03:46:13.937Z,99.90
2023-05-01T03:48:41.240Z,99.90
2023-05-01T03:51:08.388Z,99.90
2023-05-01T03:53:36.825Z,99.90
2023-05-01T03:56:04.666Z,99.90
2023-05-01T03:58:31.401Z,99.90
2023-05-01T04:01:00.809Z,99.90
2023-05-01T04:03:28.671Z,99.90
2023-05-01T04:05:56.013Z,99.90
2023-05-01T04:08:22.941Z,99.90
2023-05-01T04:10:49.660Z,99.90
2023-05-01T04:13:16.460Z,99.90
2023-05-01T04:15:47.420Z,99.90
2023-05-01T04:18:14.518Z,99.90
2023-05-01T04:20:41.440Z,99.90
2023-05-01T04:23:09.530Z,99.90
2023-05-01T04:25:37.010Z,99.90
2023-05-01T04:28:03.975Z,99.90
2023-05-01T04:30:33.841Z,99.90
2023-05-01T04:33:00.814Z,99.90
2023-05-01T04:35:30.027Z,99.90
2023-05-01T04:37:56.883Z,99.90
2023-05-01T04:40:23.923Z,99.90
2023-05-01T04:42:50.923Z,99.90
2023-05-01T04:45:18.093Z,99.90
2023-05-01T04:47:45.130Z,99.90
2023-05-01T04:50:12.158Z,99.90
2023-05-01T04:52:39.149Z,99.90
2023-05-01T04:55:09.350Z,99.90
2023-05-01T04:57:37.326Z,99.90
2023-05-01T05:00:05.145Z,99.90
2023-05-01T05:02:32.399Z,99.90
2023-05-01T05:04:59.304Z,99.90
2023-05-01T05:07:26.340Z,99.90
2023-05-01T05:09:53.447Z,99.90
2023-05-01T05:12:20.469Z,99.90
2023-05-01T05:14:48.024Z,99.90
2023-05-01T05:17:14.867Z,99.90
2023-05-01T05:19:41.613Z,99.90
2023-05-01T05:22:08.692Z,99.90
2023-05-01T05:24:35.690Z,99.90
2023-05-01T05:27:04.030Z,99.90
2023-05-01T05:29:31.022Z,99.90
2023-05-01T05:31:59.647Z,99.90
2023-05-01T05:34:27.643Z,99.90
2023-05-01T05:36:54.622Z,99.90
2023-05-01T05:39:24.648Z,99.90
2023-05-01T05:41:53.652Z,99.90
2023-05-01T05:44:20.810Z,99.90
2023-05-01T05:46:47.721Z,99.90
2023-05-01T05:49:14.754Z,99.90
2023-05-01T05:51:41.868Z,99.90
2023-05-01T05:54:08.882Z,99.90
2023-05-01T05:56:36.090Z,99.90
2023-05-01T05:59:04.592Z,99.90
2023-05-01T06:01:32.319Z,99.90
2023-05-01T06:03:59.477Z,99.90
2023-05-01T06:06:27.642Z,99.90
2023-05-01T06:08:54.801Z,99.90
2023-05-01T06:11:22.419Z,99.90
2023-05-01T06:13:55.280Z,99.90
2023-05-01T06:16:25.616Z,99.90
2023-05-01T06:18:53.450Z,99.90
2023-05-01T06:21:20.418Z,99.90
2023-05-01T06:23:55.465Z,99.90
2023-05-01T06:26:26.352Z,99.90
2023-05-01T06:28:55.479Z,99.90
2023-05-01T06:31:22.414Z,99.90
2023-05-01T06:33:50.224Z,99.90
2023-05-01T06:36:17.262Z,99.90
2023-05-01T06:38:48.666Z,99.90
2023-05-01T06:41:16.865Z,99.90
2023-05-01T06:43:43.806Z,99.90
2023-05-01T06:46:10.982Z,99.90
2023-05-01T06:48:38.322Z,99.90
2023-05-01T06:51:05.502Z,99.90
2023-05-01T06:53:32.383Z,99.90
2023-05-01T06:55:59.466Z,99.90
2023-05-01T06:58:27.337Z,99.90
2023-05-01T07:00:54.620Z,99.90
2023-05-01T07:03:21.761Z,99.90
2023-05-01T07:05:48.844Z,99.90
2023-05-01T07:08:16.047Z,99.90
2023-05-01T07:10:43.627Z,99.90
2023-05-01T07:13:10.508Z,99.90
2023-05-01T07:15:37.853Z,99.90
2023-05-01T07:18:07.967Z,99.90
2023-05-01T07:20:35.069Z,99.90
2023-05-01T07:23:01.897Z,99.90
2023-05-01T07:25:31.229Z,99.90
2023-05-01T07:28:00.763Z,99.90
2023-05-01T07:30:30.335Z,99.90
2023-05-01T07:32:59.950Z,99.90
2023-05-01T07:35:27.421Z,99.90
2023-05-01T07:37:55.069Z,99.90
2023-05-01T07:40:22.214Z,99.90
2023-05-01T07:42:49.340Z,96.20
2023-05-01T07:45:16.729Z,92.80
2023-05-01T07:47:43.663Z,90.30
2023-05-01T07:50:11.713Z,85.10
2023-05-01T07:52:39.656Z,86.40
2023-05-01T07:55:07.315Z,90.00
2023-05-01T07:57:35.495Z,91.00
2023-05-01T08:00:02.302Z,90.80
2023-05-01T08:02:29.514Z,90.10
2023-05-01T08:04:56.620Z,86.80
2023-05-01T08:07:23.480Z,85.10
2023-05-01T08:09:50.626Z,84.60
2023-05-01T08:12:17.561Z,83.50
2023-05-01T08:14:44.622Z,81.70
2023-05-01T08:17:11.704Z,77.20
2023-05-01T08:19:38.736Z,72.80
2023-05-01T08:22:05.623Z,68.20
2023-05-01T08:24:32.384Z,64.20
2023-05-01T08:26:59.524Z,62.80
2023-05-01T08:29:26.505Z,63.20
2023-05-01T08:31:53.660Z,62.90
2023-05-01T08:34:20.617Z,62.30
2023-05-01T08:36:47.636Z,59.90
2023-05-01T08:39:15.536Z,58.30
2023-05-01T08:41:46.983Z,56.70
2023-05-01T08:44:16.707Z,58.70
2023-05-01T08:46:46.511Z,58.00
2023-05-01T08:49:17.127Z,56.10
2023-05-01T08:51:50.037Z,53.90
2023-05-01T08:54:19.723Z,52.40
2023-05-01T08:56:53.430Z,51.60
2023-05-01T08:59:23.813Z,52.40
2023-05-01T09:01:52.334Z,53.50
2023-05-01T09:04:19.608Z,54.70
2023-05-01T09:06:46.842Z,56.30
2023-05-01T09:09:13.652Z,57.00
2023-05-01T09:11:43.075Z,57.70
2023-05-01T09:14:09.833Z,58.80
2023-05-01T09:16:37.040Z,58.70
2023-05-01T09:19:03.979Z,58.40
2023-05-01T09:21:32.075Z,58.70
2023-05-01T09:23:58.951Z,59.20
2023-05-01T09:26:26.839Z,60.00
2023-05-01T09:28:58.014Z,60.80
2023-05-01T09:31:29.663Z,62.00
2023-05-01T09:33:58.508Z,63.00
2023-05-01T09:36:27.951Z,64.50
2023-05-01T09:38:54.976Z,66.40
2023-05-01T09:41:22.863Z,66.40
2023-05-01T09:43:54.819Z,65.20
2023-05-01T09:46:24.321Z,62.90
2023-05-01T09:49:03.308Z,62.80
2023-05-01T09:51:32.860Z,64.00
2023-05-01T09:54:02.171Z,64.70
2023-05-01T09:56:31.673Z,65.70
2023-05-01T09:59:14.199Z,64.90
2023-05-01T10:01:46.553Z,65.10
2023-05-01T10:04:14.323Z,65.50
2023-05-01T10:06:42.134Z,64.80
2023-05-01T10:09:17.596Z,63.10
2023-05-01T10:11:49.342Z,62.70
2023-05-01T10:14:16.624Z,61.30
2023-05-01T10:16:44.687Z,60.80
2023-05-01T10:19:12.651Z,59.10
2023-05-01T10:21:39.667Z,58.70
2023-05-01T10:24:08.278Z,59.30
2023-05-01T10:26:36.444Z,60.50
2023-05-01T10:29:04.373Z,61.60
2023-05-01T10:31:33.062Z,66.00
2023-05-01T10:34:02.169Z,66.90
2023-05-01T10:36:44.754Z,70.40
2023-05-01T10:39:46.672Z,70.90
2023-05-01T10:42:32.185Z,69.50
2023-05-01T10:45:28.284Z,67.40
2023-05-01T10:47:55.497Z,66.30
2023-05-01T10:50:22.466Z,65.40
2023-05-01T10:53:20.176Z,65.40
2023-05-01T10:55:49.230Z,65.00
2023-05-01T10:58:41.000Z,66.50
2023-05-01T11:01:36.148Z,67.50
2023-05-01T11:04:07.687Z,67.10
2023-05-01T11:06:36.810Z,64.60
2023-05-01T11:09:23.893Z,65.40
2023-05-01T11:11:51.233Z,65.00
2023-05-01T11:14:18.066Z,63.20
2023-05-01T11:16:46.449Z,63.10
2023-05-01T11:19:22.762Z,64.60
2023-05-01T11:21:54.184Z,72.20
2023-05-01T11:24:21.028Z,74.70
2023-05-01T11:26:49.189Z,73.80
2023-05-01T11:29:16.086Z,72.00
2023-05-01T11:31:48.257Z,71.60
2023-05-01T11:34:15.834Z,71.20
2023-05-01T11:36:50.317Z,73.20
2023-05-01T11:39:17.855Z,76.20
2023-05-01T11:41:46.728Z,75.80
2023-05-01T11:44:18.272Z,74.70
2023-05-01T11:46:45.714Z,73.40
2023-05-01T11:49:12.925Z,70.50
2023-05-01T11:51:40.076Z,72.10
2023-05-01T11:54:09.544Z,70.60
2023-05-01T11:56:37.739Z,67.60
2023-05-01T11:59:16.515Z,64.00
2023-05-01T12:01:47.127Z,59.70
2023-05-01T12:04:31.563Z,62.40
2023-05-01T12:06:59.062Z,59.70
2023-05-01T12:09:27.397Z,59.30
2023-05-01T12:11:54.734Z,59.40
2023-05-01T12:14:22.321Z,61.10
2023-05-01T12:16:49.648Z,62.00
2023-05-01T12:19:17.551Z,63.90
2023-05-01T12:21:44.784Z,64.50
2023-05-01T12:24:15.002Z,64.60
2023-05-01T12:26:42.797Z,70.00
2023-05-01T12:29:10.178Z,81.00
2023-05-01T12:31:45.720Z,78.80
2023-05-01T12:34:12.647Z,79.30
2023-05-01T12:36:39.576Z,84.00
2023-05-01T12:39:14.301Z,83.00
2023-05-01T12:41:49.209Z,83.30
2023-05-01T12:44:18.490Z,83.10
2023-05-01T12:46:47.393Z,80.30
2023-05-01T12:49:21.346Z,77.70
2023-05-01T12:51:49.845Z,76.80
2023-05-01T12:54:24.280Z,74.50
2023-05-01T12:56:54.825Z,74.60
2023-05-01T12:59:27.295Z,75.10
2023-05-01T13:02:02.155Z,75.80
2023-05-01T13:04:29.575Z,73.90
2023-05-01T13:06:57.747Z,73.50
2023-05-01T13:09:30.817Z,69.70
2023-05-01T13:12:02.278Z,64.30
2023-05-01T13:14:40.571Z,67.10
2023-05-01T13:17:11.724Z,73.90
2023-05-01T13:19:39.435Z,76.30
2023-05-01T13:22:06.720Z,79.30
2023-05-01T13:24:39.650Z,84.80
2023-05-01T13:27:08.657Z,87.60
2023-05-01T13:29:36.313Z,91.00
2023-05-01T13:32:06.766Z,91.50
2023-05-01T13:34:34.617Z,92.30
2023-05-01T13:37:02.695Z,92.40
2023-05-01T13:39:29.748Z,91.80
2023-05-01T13:41:56.606Z,91.30
2023-05-01T13:44:23.622Z,91.40
2023-05-01T13:46:50.697Z,91.80
2023-05-01T13:49:22.745Z,92.30
2023-05-01T13:51:49.967Z,93.00
2023-05-01T13:54:17.858Z,93.40
2023-05-01T13:56:44.659Z,94.10
2023-05-01T13:59:11.710Z,95.40
2023-05-01T14:01:45.939Z,96.10
2023-05-01T14:04:21.695Z,95.80
2023-05-01T14:06:49.055Z,96.10
2023-05-01T14:09:19.413Z,96.00
2023-05-01T14:11:48.059Z,96.10
2023-05-01T14:14:18.521Z,95.10
2023-05-01T14:16:50.459Z,94.70
2023-05-01T14:19:18.315Z,93.90
2023-05-01T14:21:45.706Z,93.50
2023-05-01T14:24:14.817Z,92.70
2023-05-01T14:26:44.334Z,92.40
2023-05-01T14:29:17.092Z,92.40
2023-05-01T14:31:45.070Z,93.10
2023-05-01T14:34:17.365Z,92.50
2023-05-01T14:36:44.122Z,91.80
2023-05-01T14:39:12.429Z,92.60
2023-05-01T14:41:42.910Z,92.30
2023-05-01T14:44:18.635Z,91.00
2023-05-01T14:46:52.370Z,91.90
2023-05-01T14:49:22.329Z,91.50
2023-05-01T14:51:51.632Z,90.20
2023-05-01T14:54:27.502Z,89.40
2023-05-01T14:57:01.682Z,88.50
2023-05-01T14:59:31.513Z,90.20
2023-05-01T15:01:58.660Z,91.10
2023-05-01T15:04:26.520Z,91.80
2023-05-01T15:06:53.693Z,90.80
2023-05-01T15:09:20.576Z,90.70
2023-05-01T15:11:47.672Z,90.20
2023-05-01T15:14:14.765Z,90.00
2023-05-01T15:16:41.854Z,89.30
2023-05-01T15:19:08.734Z,89.70
2023-05-01T15:21:35.805Z,92.00
2023-05-01T15:24:02.876Z,92.90
2023-05-01T15:26:29.921Z,93.80
2023-05-01T15:28:56.916Z,94.50
2023-05-01T15:31:24.051Z,94.90
2023-05-01T15:33:51.054Z,95.90
2023-05-01T15:36:18.756Z,96.90
2023-05-01T15:38:47.282Z,97.30
2023-05-01T15:41:15.928Z,97.40
2023-05-01T15:43:43.758Z,96.60
2023-05-01T15:46:11.734Z,97.10
2023-05-01T15:48:38.842Z,96.70
2023-05-01T15:51:05.860Z,96.40
2023-05-01T15:53:32.806Z,95.30
2023-05-01T15:55:59.873Z,95.40
2023-05-01T15:58:26.882Z,96.30
2023-05-01T16:00:53.673Z,96.90
2023-05-01T16:03:20.942Z,97.50
2023-05-01T16:05:48.126Z,97.70
2023-05-01T16:08:15.995Z,97.70
2023-05-01T16:10:42.910Z,97.40
2023-05-01T16:13:10.002Z,97.40
2023-05-01T16:15:37.987Z,97.70
2023-05-01T16:18:05.332Z,98.20
2023-05-01T16:20:41.739Z,99.30
2023-05-01T16:23:08.921Z,99.80
2023-05-01T16:25:35.910Z,99.90
2023-05-01T16:28:06.030Z,99.50
2023-05-01T16:30:32.882Z,99.90
2023-05-01T16:33:03.064Z,99.90
2023-05-01T16:35:31.744Z,99.90
2023-05-01T16:37:59.903Z,99.90
2023-05-01T16:40:26.751Z,99.90
2023-05-01T16:42:54.866Z,99.90
2023-05-01T16:45:22.155Z,99.90
2023-05-01T16:47:48.975Z,99.90
2023-05-01T16:50:17.108Z,99.90
2023-05-01T16:52:44.131Z,99.90
2023-05-01T16:55:11.563Z,99.90
2023-05-01T16:57:38.563Z,99.90
2023-05-01T17:00:09.316Z,99.90
2023-05-01T17:02:36.941Z,99.90
2023-05-01T17:05:04.243Z,99.90
2023-05-01T17:07:31.640Z,99.90
2023-05-01T17:09:59.106Z,99.90
2023-05-01T17:12:27.710Z,99.90
2023-05-01T17:14:54.959Z,99.90
2023-05-01T17:17:22.382Z,99.90
2023-05-01T17:19:49.579Z,99.90
2023-05-01T17:22:16.513Z,99.90
2023-05-01T17:24:43.420Z,99.90
2023-05-01T17:27:10.804Z,99.90
2023-05-01T17:29:37.607Z,99.90
2023-05-01T17:32:05.007Z,99.90
2023-05-01T17:34:32.109Z,99.90
2023-05-01T17:36:59.044Z,99.90
2023-05-01T17:39:28.066Z,99.90
2023-05-01T17:41:55.369Z,99.90
2023-05-01T17:44:22.070Z,99.90
2023-05-01T17:46:48.932Z,99.90
2023-05-01T17:49:16.220Z,99.90
2023-05-01T17:51:45.139Z,99.90
2023-05-01T17:54:12.213Z,99.90
2023-05-01T17:56:39.140Z,99.90
2023-05-01T17:59:06.208Z,99.90
2023-05-01T18:01:34.574Z,99.90
2023-05-01T18:04:01.877Z,99.90
2023-05-01T18:06:29.006Z,99.90
2023-05-01T18:08:56.025Z,99.90
2023-05-01T18:11:23.116Z,99.90
2023-05-01T18:13:50.452Z,99.90
2023-05-01T18:16:18.560Z,99.90
2023-05-01T18:18:46.983Z,99.90
2023-05-01T18:21:14.620Z,99.90
2023-05-01T18:23:41.564Z,99.90
2023-05-01T18:26:08.696Z,99.90
2023-05-01T18:28:35.702Z,99.90
2023-05-01T18:31:03.695Z,99.90
2023-05-01T18:33:30.692Z,99.90
2023-05-01T18:35:58.020Z,99.90
2023-05-01T18:38:26.348Z,99.90
2023-05-01T18:40:55.031Z,99.90
2023-05-01T18:43:22.085Z,99.90
2023-05-01T18:45:49.109Z,99.90
2023-05-01T18:48:16.333Z,99.90
2023-05-01T18:50:47.162Z,99.90
2023-05-01T18:53:18.506Z,99.90
2023-05-01T18:55:45.577Z,99.90
2023-05-01T18:58:12.542Z,99.90
2023-05-01T19:00:39.261Z,99.90
2023-05-01T19:03:07.231Z,99.90
2023-05-01T19:05:34.299Z,99.90
2023-05-01T19:08:05.088Z,99.90
2023-05-01T19:10:31.963Z,99.90
2023-05-01T19:13:00.196Z,99.90
2023-05-01T19:15:27.231Z,99.90
2023-05-01T19:17:54.776Z,99.90
2023-05-01T19:20:21.970Z,99.90
2023-05-01T19:22:48.865Z,99.90
2023-05-01T19:25:15.977Z,99.90
2023-05-01T19:27:42.884Z,99.90
2023-05-01T19:30:09.875Z,99.90
2023-05-01T19:32:38.898Z,99.90
2023-05-01T19:35:06.403Z,99.90
2023-05-01T19:37:33.456Z,99.90
2023-05-01T19:40:00.493Z,99.90
2023-05-01T19:42:27.685Z,99.90
2023-05-01T19:44:54.665Z,99.90
2023-05-01T19:47:21.789Z,99.90
2023-05-01T19:49:48.738Z,99.90
2023-05-01T19:52:15.822Z,99.90
2023-05-01T19:54:44.738Z,99.90
2023-05-01T19:57:12.919Z,99.90
2023-05-01T19:59:41.224Z,99.90
2023-05-01T20:02:08.185Z,99.90
2023-05-01T20:04:35.057Z,99.90
2023-05-01T20:07:04.479Z,99.90
2023-05-01T20:09:31.818Z,99.90
2023-05-01T20:11:58.834Z,99.90
2023-05-01T20:14:25.532Z,99.90
2023-05-01T20:16:53.052Z,99.90
2023-05-01T20:19:20.002Z,99.90
2023-05-01T20:21:47.093Z,99.90
2023-05-01T20:24:14.009Z,99.90
2023-05-01T20:26:41.164Z,99.90
2023-05-01T20:29:09.311Z,99.90
2023-05-01T20:31:36.524Z,99.90
2023-05-01T20:34:03.420Z,99.90
2023-05-01T20:36:30.543Z,99.90
2023-05-01T20:38:57.976Z,99.90
2023-05-01T20:41:25.737Z,99.90
2023-05-01T20:43:52.955Z,99.90
2023-05-01T20:46:20.326Z,99.90
2023-05-01T20:48:47.466Z,99.90
2023-05-01T20:51:18.028Z,99.90
2023-05-01T20:53:45.126Z,99.90
2023-05-01T20:56:12.265Z,99.90
2023-05-01T20:58:39.223Z,99.90
2023-05-01T21:01:06.638Z,99.90
2023-05-01T21:03:33.835Z,99.90
2023-05-01T21:06:01.923Z,99.90
2023-05-01T21:08:29.590Z,99.90
2023-05-01T21:10:56.746Z,99.90
2023-05-01T21:13:24.851Z,99.90
2023-05-01T21:15:52.504Z,99.90
2023-05-01T21:18:23.583Z,99.90
2023-05-01T21:20:50.570Z,99.90
2023-05-01T21:23:17.781Z,99.90
2023-05-01T21:25:44.922Z,99.90
2023-05-01T21:28:13.735Z,99.90
2023-05-01T21:30:41.064Z,99.90
2023-05-01T21:33:13.133Z,99.90
2023-05-01T21:35:45.100Z,99.90
2023-05-01T21:38:12.458Z,99.90
2023-05-01T21:40:43.026Z,99.90
2023-05-01T21:43:10.124Z,99.90
2023-05-01T21:45:40.397Z,99.90
2023-05-01T21:48:09.246Z,99.90
2023-05-01T21:50:38.123Z,99.90
2023-05-01T21:53:07.196Z,99.90
2023-05-01T21:55:34.226Z,99.90
2023-05-01T21:58:02.215Z,99.90
2023-05-01T22:00:29.902Z,99.90
2023-05-01T22:02:56.903Z,99.90
2023-05-01T22:05:24.010Z,99.90
2023-05-01T22:07:52.466Z,99.90
2023-05-01T22:10:19.746Z,99.90
2023-05-01T22:12:49.274Z,99.90
2023-05-01T22:15:16.598Z,99.90
2023-05-01T22:17:44.752Z,99.90
2023-05-01T22:20:11.877Z,99.90
2023-05-01T22:22:40.512Z,99.90
2023-05-01T22:25:08.739Z,99.90
2023-05-01T22:27:36.311Z,99.90
2023-05-01T22:30:05.029Z,99.90
2023-05-01T22:32:32.333Z,99.90
2023-05-01T22:34:59.320Z,99.90
2023-05-01T22:37:26.311Z,99.90
2023-05-01T22:39:53.592Z,99.90
2023-05-01T22:42:20.852Z,99.90
2023-05-01T22:44:48.213Z,99.90
2023-05-01T22:47:15.731Z,99.90
2023-05-01T22:49:42.857Z,99.90
2023-05-01T22:52:09.728Z,99.90
2023-05-01T22:54:37.681Z,99.90
2023-05-01T22:57:04.694Z,99.90
2023-05-01T22:59:31.487Z,99.90
2023-05-01T23:01:58.457Z,99.90
2023-05-01T23:04:25.413Z,99.90
2023-05-01T23:06:52.604Z,99.90
2023-05-01T23:09:19.469Z,99.90
2023-05-01T23:11:47.702Z,99.90
2023-05-01T23:14:18.268Z,99.90
2023-05-01T23:16:45.259Z,99.90
2023-05-01T23:19:23.258Z,99.90
2023-05-01T23:21:51.796Z,99.90
2023-05-01T23:24:20.297Z,99.90
2023-05-01T23:26:47.417Z,99.90
2023-05-01T23:29:16.013Z,99.90
2023-05-01T23:31:47.612Z,99.90
2023-05-01T23:34:19.335Z,99.90
2023-05-01T23:36:47.160Z,99.90
2023-05-01T23:39:14.600Z,99.90
2023-05-01T23:41:42.117Z,99.90
2023-05-01T23:44:09.991Z,99.90
2023-05-01T23:46:37.595Z,99.90
2023-05-01T23:49:04.915Z,99.90
2023-05-01T23:51:32.105Z,99.90
2023-05-01T23:53:59.184Z,99.90
2023-05-01T23:56:26.377Z,99.90
2023-05-01T23:58:53.150Z,99.90
